Terminal Aerodrome Forecast
Issued by NWS

Home | Current Version | Previous Version | Text Only | Print | Product List | Glossary On
Versions: 1 2 3 4 5 6 7 8 9 10 11 12 13 14 15 16 17 18 19 20 21 22 23 24 25 26 27 28 29 30 31 32 33 34 35 36 37 38
000
FTAK31 PAFA 020540
TAFAFA
TAF
PAFA 020540Z 0206/0312 21005KT 4SM -SHRA BR FU SCT015 BKN025 OVC040
     FM020800 24005KT 3SM -RA BR FU SCT015 OVC025
     FM021400 24006KT 4SM -SHRA FU BKN025 OVC040
     FM022000 26013G21KT 6SM FU VCSH BKN050
     FM030600 25010KT 6SM FU SCT070=

USA.gov is the U.S. government's official web portal to all federal, state and local government web resources and services.